Relevés horaires St-Hubert (Belgique)


Relevés horaires à St-Hubert - Lundi 09 Juill. 2018
Heure UTC1 Température [°C] Vent [km/h] Hum. [%] Pres.4 [hPa] Visi. [Km] Nébu. [octa] Préc.5 [mm] Cond.
2m. Res. Ros. Dir.2 Vit. Moy. Raf.3
23:00 15.5 15.5 12.4 NNO 0.0 0.0 0.0 82 1021.1(-0.3/3h) 35 0/8 -- --
22:00 16.3 16.3 11.9 NNO 0.0 0.0 0.0 75 1021.3(0.2/3h) 40 0/8 -- --
21:00 16.3 16.3 11.7 NNO 0.0 0.0 0.0 74 1021.4(-0.1/3h) 40 0/8 -- --
20:00 17.1 17.1 11.8 NNO 0.0 0.0 0.0 71 1021.1(-0.5/3h) 45 0/8 -- --
19:00 18.4 18.4 11.5 NNO 0.0 0.0 0.0 64 1021(-0.3/3h) 45 0/8 -- --
18:00 18.9 18.9 11.3 NNO 0.0 0.0 0.0 61 1020.9(-0.6/3h) 35 0/8 0/12h
--
17:00 19.7 19.7 10.1 NNO 0.0 0.0 0.0 54 1021.1(-0.9/3h) 40 0/8 -- --
16:00 20.1 20.1 9.7 NNO 0.0 0.0 0.0 51 1021(-1.0/3h) 40 0/8 -- --
15:00 19.6 19.6 9.4 NNO 0.0 0.0 0.0 52 1021.5(-0.9/3h) 29 0/8 -- --
14:00 19.9 19.9 8.7 NNO 0.0 0.0 0.0 48 1022(-0.3/3h) 35 0/8 -- --
13:00 19.2 19.2 8.8 NNO 0.0 0.0 0.0 51 1022.3(-0.5/3h) 30 0/8 -- --
12:00 19.7 19.7 9.5 NNO 0.0 0.0 0.0 52 1022.4(-0.6/3h) 30 0/8 0/6h
--
11:00 18.3 18.3 9.1 NNO 0.0 0.0 0.0 55 1022.7(-0.6/3h) 30 0/8 -- --
10:00 18.2 18.2 9.9 NNO 0.0 0.0 0.0 58 1023.1(0.1/3h) 30 0/8 -- --
09:00 17.4 17.4 10.3 NNO 0.0 0.0 0.0 63 1023.5(0.5/3h) 30 0/8 -- --
08:00 15.4 15.4 9.6 NNO 0.0 0.0 0.0 68 1024(0.5/3h) 29 0/8 -- --
07:00 15.5 15.5 10.6 NNO 0.0 0.0 0.0 73 1023.8(-0.1/3h) 23 0/8 -- --
06:00 14.0 14.0 10.1 NNO 0.0 0.0 0.0 77 1023.8(0.0/3h) 25 0/8 0/12h
--
05:00 12.0 12.0 9.4 NNO 0.0 0.0 0.0 84 1024.3(0.2/3h) 26 0/8 -- --
04:00 10.9 10.9 8.4 NNO 0.0 0.0 0.0 85 1024.8(-0.3/3h) 35 0/8 -- --
03:00 11.8 11.8 8.5 NNO 0.0 0.0 0.0 80 1024.4(-0.5/3h) 40 0/8 -- --
02:00 12.0 12.0 8.1 NNO 0.0 0.0 0.0 77 1024.5(-0.5/3h) 45 0/8 -- --
01:00 13.0 13.0 7.6 NNO 0.0 0.0 0.0 70 1024.6(0.2/3h) 45 0/8 -- --
00:00 14.5 14.5 6.9 NNO 0.0 0.0 0.0 60 1024.3(0.1/3h) 45 0/8 0/6h
0/24h
--

1 Coordinated Universal Time. Actuellement il est 12:00 locale et 10:00 UTC.

2 Le vent souffle depuis la direction indiquée vers la direction oposée.

3 Les rafales max. sont disponible 40 min après l'heure du relevé.

4 Pour les stations d'altitude (plus de 600m) le géopotentiel du niveau le plus proche de la pression obligatoire est indiqué.

5 Les stations disposant d'un diffuseur peuvent indiquer "trace". Cela signifie que des précipitations ont touchés le sol mais que la quantité est inférieure à 0.1 mm.

Récapitulatif de la journée
Température [°C] Vent [km/h] Ensoleillement4 [h] Precipitations totale5 [mm] Pression [Hpa]
Min1 Max.2 Moy.3 Max. Min Max.
10.7 21.2 0 0.0 0 h 0 min 0 1020.9 1024.8

1 Température minimale relevée entre 18:00 UTC la veille et 18:00 UTC le jour donné.

2 Température maximale relevée entre 06:00 UTC le jour donné et 06:00 UTC le lendemain.

3 Vent moyen de la journée basé sur les relevés horaires.

4 Ensoleillement en heures relevé entre 06:00 UTC la veille et 06:00 UTC le jour donné.

5 Précipitations totales tombées entre 06:00 UTC la jour donné et 06:00 UTC le lendemain.

Graphiques horaires